Archival Weather

Half Moon Bay

Half Moon Bay, California (KHAF)

Report from: Tuesday, September 19, 2023 9:35 AM PDT
Current time: Monday, June 17, 2024 2:52 AM PDT

Current weather – Weather history – Daily summaries
Weather forecast

Present weatherMist
Temperature16.0°C (60.8°F)
Dew point15.0°C (59.0°F)
Winds 4 kts (2.1 m/s, 4.6 mph) South (190°)
Visibility5 mi. (8 km)
Clouds Few clouds 800 ft. (244 m)
Few clouds 1,300 ft. (396 m)
Ceiling: Overcast 2,100 ft. (640 m)
Altimeter30.00 in.Hg (1016 mB)
Relative humidity94 %
Density altitude263 ft. (80 m)
Remarks Fully automated report
Automated weather observing station with precipitation discriminator
Flight conditions Marginal Visual Meteorological Conditions
Raw dataKHAF 191635Z AUTO 19004KT 5SM BR FEW008 FEW013 OVC021 16/15 A3000 RMK AO2
An error has occurred. This application may no longer respond until reloaded. Reload 🗙